Time;durP1;ratioP1;P1;durP2;ratioP2;P2;SDS_P1;SDS_P2;PMS_P1;PMS_P2;Temp;Humidity;BMP_temperature;BMP_pressure;BME280_temperature;BME280_humidity;BME280_pressure;Samples;Min_cycle;Max_cycle;Signal;HPM_P1;HPM_P2
2022/10/22 00:01:28;;;;;;;1.73;1.60;;;;;;;;;;5211823;22;20244;-33
2022/10/22 00:07:24;;;;;;;5.03;1.50;;;;;;;;;;5138303;22;20248;-32
2022/10/22 00:10:05;;;;;;;1.40;1.17;;;;;;;;;;5059593;28;20244;-34
2022/10/22 00:24:25;;;;;;;2.17;1.00;;;;;;;;;;5131260;27;20260;-31
2022/10/22 00:27:08;;;;;;;1.40;1.30;;;;;;;;;;5116775;27;20213;-32
2022/10/22 00:29:45;;;;;;;2.50;1.57;;;;;;;;;;5129225;27;20209;-32
2022/10/22 00:32:23;;;;;;;2.33;1.40;;;;;;;;;;5119998;27;20212;-31
2022/10/22 00:35:00;;;;;;;2.30;1.20;;;;;;;;;;5104251;28;20230;-30
2022/10/22 00:37:36;;;;;;;3.17;1.20;;;;;;;;;;5108149;28;20195;-29
2022/10/22 00:40:09;;;;;;;1.53;1.43;;;;;;;;;;5115403;28;20260;-33
2022/10/22 00:42:49;;;;;;;2.23;1.03;;;;;;;;;;5107971;28;20200;-28
2022/10/22 00:45:23;;;;;;;1.43;1.23;;;;;;;;;;5115218;28;20232;-33
2022/10/22 00:47:59;;;;;;;1.20;0.97;;;;;;;;;;5113619;28;20245;-31
2022/10/22 00:50:33;;;;;;;1.93;1.20;;;;;;;;;;5123227;27;20223;-30
2022/10/22 00:53:10;;;;;;;1.33;1.20;;;;;;;;;;5105886;28;20204;-30
2022/10/22 00:55:40;;;;;;;3.13;1.40;;;;;;;;;;5116865;28;20204;-32
2022/10/22 00:58:20;;;;;;;1.53;1.10;;;;;;;;;;5124060;27;20236;-30
2022/10/22 01:00:57;;;;;;;1.20;1.10;;;;;;;;;;5119249;22;20232;-33
2022/10/22 01:03:35;;;;;;;1.47;0.97;;;;;;;;;;5106850;27;20199;-34
2022/10/22 01:06:09;;;;;;;2.77;1.00;;;;;;;;;;5110200;27;20205;-29
2022/10/22 01:08:51;;;;;;;2.73;1.37;;;;;;;;;;5122144;27;20282;-31
2022/10/22 01:11:28;;;;;;;14.97;1.10;;;;;;;;;;5111452;28;20224;-28
2022/10/22 01:16:49;;;;;;;1.27;1.13;;;;;;;;;;6116306;22;21350;-30
2022/10/22 01:22:28;;;;;;;2.03;1.07;;;;;;;;;;5093703;28;20211;-32
2022/10/22 01:25:18;;;;;;;1.03;0.80;;;;;;;;;;5109495;28;20195;-30
2022/10/22 01:28:03;;;;;;;0.87;0.87;;;;;;;;;;5084973;28;20251;-30
2022/10/22 01:30:43;;;;;;;2.73;0.70;;;;;;;;;;5102245;28;20280;-33
2022/10/22 01:33:20;;;;;;;0.83;0.83;;;;;;;;;;5091115;28;20231;-29
2022/10/22 01:35:58;;;;;;;0.73;0.70;;;;;;;;;;5089652;28;20212;-32
2022/10/22 01:38:39;;;;;;;1.20;0.83;;;;;;;;;;5090807;28;20200;-29
2022/10/22 01:41:16;;;;;;;2.43;0.60;;;;;;;;;;5080810;28;20225;-29
2022/10/22 01:43:54;;;;;;;0.87;0.60;;;;;;;;;;5103074;28;20200;-32
2022/10/22 01:46:52;;;;;;;1.40;0.57;;;;;;;;;;5082237;28;20229;-28
2022/10/22 01:52:37;;;;;;;0.60;0.40;;;;;;;;;;5074542;28;20273;-28
2022/10/22 01:55:26;;;;;;;0.47;0.47;;;;;;;;;;5096066;28;20219;-33
2022/10/22 01:58:10;;;;;;;1.63;0.60;;;;;;;;;;5085135;28;20231;-28
2022/10/22 02:00:54;;;;;;;0.63;0.60;;;;;;;;;;5080983;28;20252;-31
2022/10/22 02:03:29;;;;;;;1.17;0.40;;;;;;;;;;5077707;28;20219;-32
2022/10/22 02:06:01;;;;;;;0.60;0.50;;;;;;;;;;5098352;28;20203;-32
2022/10/22 02:08:39;;;;;;;1.90;0.60;;;;;;;;;;5100407;28;20224;-31
2022/10/22 02:11:10;;;;;;;1.90;0.90;;;;;;;;;;5092107;28;20248;-29
2022/10/22 02:13:48;;;;;;;1.70;0.60;;;;;;;;;;5080167;28;20208;-32
2022/10/22 02:16:28;;;;;;;1.97;1.17;;;;;;;;;;5080858;28;20200;-30
2022/10/22 02:19:20;;;;;;;1.30;0.60;;;;;;;;;;5080904;28;20219;-30
2022/10/22 02:21:51;;;;;;;0.83;0.60;;;;;;;;;;5123435;22;20269;-31
2022/10/22 02:24:26;;;;;;;3.33;0.60;;;;;;;;;;5076476;28;20213;-29
2022/10/22 02:27:11;;;;;;;0.83;0.60;;;;;;;;;;5092224;28;20212;-31
2022/10/22 02:29:56;;;;;;;2.77;0.80;;;;;;;;;;5097617;28;20220;-30
2022/10/22 02:32:44;;;;;;;0.93;0.60;;;;;;;;;;5061811;28;20201;-29
2022/10/22 02:35:43;;;;;;;2.20;0.60;;;;;;;;;;5068890;28;20209;-30
2022/10/22 02:38:35;;;;;;;1.73;0.80;;;;;;;;;;5061899;28;20197;-28
2022/10/22 02:41:12;;;;;;;1.37;0.80;;;;;;;;;;5081031;28;20452;-30
2022/10/22 02:43:53;;;;;;;1.30;0.80;;;;;;;;;;5070306;28;20228;-33
2022/10/22 02:46:37;;;;;;;0.67;0.60;;;;;;;;;;5061892;28;20231;-31
2022/10/22 02:49:12;;;;;;;0.77;0.50;;;;;;;;;;5041148;28;20236;-28
2022/10/22 02:51:49;;;;;;;0.90;0.57;;;;;;;;;;5069683;28;20248;-33
2022/10/22 02:54:26;;;;;;;0.33;0.33;;;;;;;;;;5078221;28;20257;-31
2022/10/22 02:57:01;;;;;;;0.40;0.30;;;;;;;;;;5071982;28;20232;-32
2022/10/22 02:59:42;;;;;;;0.87;0.50;;;;;;;;;;5075019;28;20201;-34
2022/10/22 03:02:13;;;;;;;1.60;0.30;;;;;;;;;;5070620;28;20215;-27
2022/10/22 03:04:47;;;;;;;1.70;0.40;;;;;;;;;;5067590;28;20205;-29
2022/10/22 03:07:34;;;;;;;;;;;;;;;;;;;;;
2022/10/22 03:12:58;;;;;;;0.60;0.60;;;;;;;;;;5086263;28;20218;-28
2022/10/22 03:15:44;;;;;;;0.40;0.40;;;;;;;;;;5058653;28;20205;-31
2022/10/22 03:18:25;;;;;;;1.57;0.40;;;;;;;;;;5068460;28;20213;-33
2022/10/22 03:21:10;;;;;;;0.40;0.30;;;;;;;;;;5061480;28;20306;-32
2022/10/22 03:23:51;;;;;;;0.30;0.30;;;;;;;;;;5070115;28;20217;-32
2022/10/22 03:26:29;;;;;;;3.20;0.40;;;;;;;;;;5080463;28;20284;-30
2022/10/22 03:29:07;;;;;;;0.30;0.30;;;;;;;;;;5064391;28;20222;-33
2022/10/22 03:31:39;;;;;;;1.10;0.50;;;;;;;;;;5062353;28;20289;-32
2022/10/22 03:34:10;;;;;;;2.33;0.60;;;;;;;;;;5067091;28;20300;-29
2022/10/22 03:36:50;;;;;;;0.40;0.40;;;;;;;;;;5056325;28;20226;-33
2022/10/22 03:39:29;;;;;;;1.03;0.30;;;;;;;;;;5060506;28;20203;-32
2022/10/22 03:42:09;;;;;;;5.67;0.47;;;;;;;;;;5095837;28;20212;-29
2022/10/22 03:44:43;;;;;;;0.77;0.20;;;;;;;;;;5064337;28;20244;-31
2022/10/22 03:47:14;;;;;;;0.40;0.40;;;;;;;;;;5078966;28;20261;-29
2022/10/22 03:49:47;;;;;;;0.40;0.40;;;;;;;;;;5067669;28;20233;-30
2022/10/22 03:52:22;;;;;;;2.37;0.33;;;;;;;;;;5076160;28;20220;-30
2022/10/22 03:54:59;;;;;;;1.97;0.50;;;;;;;;;;5082695;28;20263;-29
2022/10/22 03:57:33;;;;;;;0.40;0.40;;;;;;;;;;5065316;28;20225;-29
2022/10/22 04:00:04;;;;;;;0.33;0.33;;;;;;;;;;5064861;28;20230;-31
2022/10/22 04:02:36;;;;;;;0.50;0.50;;;;;;;;;;5062375;28;20240;-29
2022/10/22 04:05:08;;;;;;;0.40;0.40;;;;;;;;;;5061873;28;20538;-27
2022/10/22 04:07:50;;;;;;;0.50;0.40;;;;;;;;;;5056224;28;20293;-31
2022/10/22 04:10:34;;;;;;;0.80;0.33;;;;;;;;;;5074973;28;20222;-30
2022/10/22 04:13:13;;;;;;;0.40;0.40;;;;;;;;;;5071066;28;20280;-31
2022/10/22 04:15:50;;;;;;;1.60;0.57;;;;;;;;;;5075754;28;20205;-32
2022/10/22 04:18:28;;;;;;;0.40;0.40;;;;;;;;;;5072750;28;20197;-31
2022/10/22 04:21:02;;;;;;;2.40;0.70;;;;;;;;;;5065172;28;20265;-28
2022/10/22 04:23:34;;;;;;;2.90;0.60;;;;;;;;;;5067802;28;20205;-32
2022/10/22 04:26:07;;;;;;;0.50;0.50;;;;;;;;;;5072561;28;20305;-32
2022/10/22 04:28:41;;;;;;;0.40;0.40;;;;;;;;;;5069741;28;20221;-31
2022/10/22 04:31:13;;;;;;;1.47;0.30;;;;;;;;;;5074813;28;20316;-31
2022/10/22 04:33:42;;;;;;;0.40;0.40;;;;;;;;;;5084488;28;20207;-29
2022/10/22 04:36:18;;;;;;;0.63;0.30;;;;;;;;;;5065866;28;20240;-31
2022/10/22 04:39:08;;;;;;;1.50;0.50;;;;;;;;;;5069300;28;20240;-29
2022/10/22 04:41:47;;;;;;;1.80;0.60;;;;;;;;;;5074505;28;20312;-28
2022/10/22 04:44:26;;;;;;;0.30;0.30;;;;;;;;;;5071048;28;20269;-34
2022/10/22 04:46:57;;;;;;;0.40;0.40;;;;;;;;;;5070892;28;20206;-33
2022/10/22 04:52:09;;;;;;;0.50;0.50;;;;;;;;;;5125893;22;20287;-33
2022/10/22 04:54:44;;;;;;;4.37;0.50;;;;;;;;;;5115340;28;20199;-31
2022/10/22 04:57:16;;;;;;;0.40;0.30;;;;;;;;;;5115437;27;20215;-33
2022/10/22 04:59:47;;;;;;;0.50;0.40;;;;;;;;;;5135135;27;20200;-29
2022/10/22 05:02:25;;;;;;;1.80;0.80;;;;;;;;;;5116502;28;20196;-33
2022/10/22 05:04:54;;;;;;;0.73;0.30;;;;;;;;;;5110733;27;20295;-31
2022/10/22 05:07:23;;;;;;;0.60;0.60;;;;;;;;;;5123492;27;20261;-32
2022/10/22 05:09:57;;;;;;;0.50;0.50;;;;;;;;;;5114705;28;20339;-31
2022/10/22 05:12:33;;;;;;;1.53;0.50;;;;;;;;;;5114468;27;20221;-31
2022/10/22 05:15:08;;;;;;;1.73;0.70;;;;;;;;;;5120949;27;20237;-31
2022/10/22 05:17:39;;;;;;;10.93;0.87;;;;;;;;;;5129444;27;20199;-32
2022/10/22 05:20:11;;;;;;;1.93;0.50;;;;;;;;;;5141233;22;20229;-32
2022/10/22 05:22:51;;;;;;;2.77;0.50;;;;;;;;;;5095239;28;20266;-32
2022/10/22 05:25:27;;;;;;;0.70;0.70;;;;;;;;;;5083425;28;20209;-31
2022/10/22 05:27:56;;;;;;;0.93;0.70;;;;;;;;;;5268488;22;20235;-30
2022/10/22 05:30:23;;;;;;;1.07;0.57;;;;;;;;;;5090194;28;20229;-34
2022/10/22 05:32:51;;;;;;;1.23;0.60;;;;;;;;;;5106622;28;20200;-29
2022/10/22 05:35:18;;;;;;;4.07;0.63;;;;;;;;;;5089038;28;20204;-33
2022/10/22 05:37:45;;;;;;;2.97;0.60;;;;;;;;;;5093413;28;20282;-32
2022/10/22 05:40:12;;;;;;;2.23;0.80;;;;;;;;;;5098385;28;20220;-33
2022/10/22 05:42:39;;;;;;;0.60;0.60;;;;;;;;;;5094486;28;20211;-33
2022/10/22 05:45:08;;;;;;;2.70;0.80;;;;;;;;;;5103509;28;20205;-31
2022/10/22 05:47:35;;;;;;;0.60;0.60;;;;;;;;;;5106368;28;20283;-30
2022/10/22 05:50:03;;;;;;;1.13;0.90;;;;;;;;;;5094594;28;20228;-35
2022/10/22 05:52:30;;;;;;;0.90;0.87;;;;;;;;;;5093654;28;20196;-37
2022/10/22 05:54:57;;;;;;;0.60;0.60;;;;;;;;;;5093312;28;20211;-35
2022/10/22 05:57:24;;;;;;;8.50;1.37;;;;;;;;;;5102117;28;20214;-32
2022/10/22 05:59:51;;;;;;;2.30;0.90;;;;;;;;;;5103821;28;20228;-32
2022/10/22 06:02:20;;;;;;;1.30;1.20;;;;;;;;;;5106272;28;20268;-35
2022/10/22 06:04:48;;;;;;;1.80;0.70;;;;;;;;;;5084670;28;20219;-31
2022/10/22 06:07:16;;;;;;;1.43;0.80;;;;;;;;;;5099640;28;20202;-31
2022/10/22 06:09:43;;;;;;;1.80;0.90;;;;;;;;;;5092448;28;20220;-33
2022/10/22 06:12:12;;;;;;;1.67;0.80;;;;;;;;;;5093056;28;20204;-34
2022/10/22 06:14:39;;;;;;;0.80;0.80;;;;;;;;;;5083323;28;20212;-32
2022/10/22 06:17:06;;;;;;;3.37;0.90;;;;;;;;;;5089678;28;20204;-34
2022/10/22 06:19:35;;;;;;;2.63;0.97;;;;;;;;;;5083543;28;20204;-30
2022/10/22 06:22:02;;;;;;;1.70;1.00;;;;;;;;;;5101172;28;20211;-36
2022/10/22 06:24:29;;;;;;;3.30;1.13;;;;;;;;;;5089141;28;20206;-32
2022/10/22 06:26:56;;;;;;;1.60;1.00;;;;;;;;;;5093699;28;20212;-33
2022/10/22 06:29:23;;;;;;;2.93;0.90;;;;;;;;;;5088399;28;20228;-28
2022/10/22 06:31:51;;;;;;;3.10;1.00;;;;;;;;;;5082872;28;20311;-31
2022/10/22 06:34:18;;;;;;;3.50;1.07;;;;;;;;;;5089794;28;20223;-27
2022/10/22 06:36:47;;;;;;;1.17;0.90;;;;;;;;;;5089750;28;20211;-30
2022/10/22 06:39:15;;;;;;;0.80;0.63;;;;;;;;;;5092509;28;20219;-33
2022/10/22 06:41:42;;;;;;;0.87;0.87;;;;;;;;;;5105036;28;20237;-30
2022/10/22 06:44:13;;;;;;;0.97;0.97;;;;;;;;;;5090092;28;20204;-30
2022/10/22 06:46:41;;;;;;;1.17;0.93;;;;;;;;;;5099313;28;20290;-30
2022/10/22 06:49:08;;;;;;;1.50;0.80;;;;;;;;;;5098223;28;20249;-32
2022/10/22 06:51:35;;;;;;;0.90;0.90;;;;;;;;;;5106130;28;20224;-35
2022/10/22 06:54:06;;;;;;;0.60;0.60;;;;;;;;;;5104430;28;20211;-30
2022/10/22 06:56:35;;;;;;;1.40;0.90;;;;;;;;;;5085227;28;20198;-31
2022/10/22 06:59:02;;;;;;;0.90;0.90;;;;;;;;;;5084674;28;20207;-31
2022/10/22 07:01:30;;;;;;;1.17;0.83;;;;;;;;;;5090587;28;20225;-32
2022/10/22 07:03:57;;;;;;;1.87;0.90;;;;;;;;;;5096156;28;20208;-35
2022/10/22 07:06:25;;;;;;;3.33;0.87;;;;;;;;;;5094755;28;20232;-31
2022/10/22 07:08:52;;;;;;;0.80;0.80;;;;;;;;;;5080660;28;20201;-34
2022/10/22 07:11:20;;;;;;;0.77;0.77;;;;;;;;;;5082064;28;20334;-32
2022/10/22 07:13:52;;;;;;;0.80;0.80;;;;;;;;;;5098639;28;20206;-30
2022/10/22 07:16:20;;;;;;;0.67;0.60;;;;;;;;;;5087349;28;20213;-32
2022/10/22 07:18:55;;;;;;;0.80;0.80;;;;;;;;;;5087450;28;20340;-33
2022/10/22 07:21:22;;;;;;;1.60;0.63;;;;;;;;;;5085312;28;20234;-32
2022/10/22 07:23:49;;;;;;;0.87;0.70;;;;;;;;;;5096109;28;20258;-28
2022/10/22 07:26:19;;;;;;;2.00;0.60;;;;;;;;;;5089836;28;20219;-32
2022/10/22 07:28:46;;;;;;;0.87;0.80;;;;;;;;;;5089813;28;20213;-32
2022/10/22 07:31:15;;;;;;;9.40;1.50;;;;;;;;;;5094143;28;20246;-32
2022/10/22 07:33:42;;;;;;;2.53;0.90;;;;;;;;;;5086992;28;20202;-31
2022/10/22 07:36:11;;;;;;;1.60;1.50;;;;;;;;;;5093236;28;20405;-30
2022/10/22 07:38:38;;;;;;;4.37;1.80;;;;;;;;;;5100584;28;20241;-29
2022/10/22 07:41:05;;;;;;;1.40;1.30;;;;;;;;;;5088928;28;20237;-30
2022/10/22 07:43:32;;;;;;;4.43;1.30;;;;;;;;;;5086349;28;20211;-33
2022/10/22 07:46:01;;;;;;;1.30;1.20;;;;;;;;;;5204752;22;20235;-32
2022/10/22 07:48:30;;;;;;;2.73;1.27;;;;;;;;;;5123735;27;20237;-33
2022/10/22 07:50:57;;;;;;;2.23;1.30;;;;;;;;;;5136579;27;20227;-35
2022/10/22 07:53:24;;;;;;;2.40;1.67;;;;;;;;;;5151293;27;20210;-30
2022/10/22 07:55:52;;;;;;;1.67;1.40;;;;;;;;;;5150249;27;20274;-30
2022/10/22 07:58:19;;;;;;;1.47;1.37;;;;;;;;;;5143194;27;20210;-32
2022/10/22 08:00:47;;;;;;;3.27;1.17;;;;;;;;;;5145533;27;20228;-32
2022/10/22 08:03:15;;;;;;;3.73;1.57;;;;;;;;;;5145851;27;20201;-31
2022/10/22 08:05:44;;;;;;;4.77;1.20;;;;;;;;;;5138775;27;20226;-36
2022/10/22 08:08:11;;;;;;;2.37;1.10;;;;;;;;;;5132375;27;20206;-34
2022/10/22 08:10:38;;;;;;;1.10;1.00;;;;;;;;;;5131341;27;20229;-32
2022/10/22 08:13:06;;;;;;;3.13;1.00;;;;;;;;;;5139663;27;20202;-31
2022/10/22 08:15:33;;;;;;;1.90;0.87;;;;;;;;;;5137441;27;20296;-34
2022/10/22 08:18:00;;;;;;;3.43;1.30;;;;;;;;;;5129864;27;20202;-31
2022/10/22 08:20:27;;;;;;;1.97;1.10;;;;;;;;;;5136337;27;20219;-30
2022/10/22 08:22:56;;;;;;;1.00;1.00;;;;;;;;;;5133679;27;20264;-36
2022/10/22 08:25:23;;;;;;;1.80;1.17;;;;;;;;;;5137767;27;20223;-32
2022/10/22 08:27:51;;;;;;;0.90;0.90;;;;;;;;;;5141337;27;20298;-34
2022/10/22 08:30:18;;;;;;;4.10;1.60;;;;;;;;;;5147582;27;20226;-32
2022/10/22 08:32:45;;;;;;;2.43;1.33;;;;;;;;;;5134762;27;20210;-32
2022/10/22 08:35:13;;;;;;;3.37;1.23;;;;;;;;;;5140331;27;20205;-34
2022/10/22 08:37:45;;;;;;;3.27;1.17;;;;;;;;;;5148797;27;20208;-32
2022/10/22 08:40:20;;;;;;;5.33;1.20;;;;;;;;;;5138027;27;20219;-30
2022/10/22 08:43:17;;;;;;;3.40;0.97;;;;;;;;;;5140121;27;20267;-33
2022/10/22 08:45:48;;;;;;;0.90;0.90;;;;;;;;;;5032305;28;20218;-29
2022/10/22 08:48:21;;;;;;;0.97;0.90;;;;;;;;;;5113617;27;20457;-34
2022/10/22 08:50:49;;;;;;;1.43;1.00;;;;;;;;;;5142970;27;20290;-31
2022/10/22 08:53:17;;;;;;;0.93;0.80;;;;;;;;;;5133259;27;20207;-33
2022/10/22 08:55:46;;;;;;;2.73;1.00;;;;;;;;;;5136789;27;20344;-34
2022/10/22 08:58:19;;;;;;;2.13;0.63;;;;;;;;;;5132236;27;20211;-33
2022/10/22 09:00:48;;;;;;;4.03;0.90;;;;;;;;;;5125942;27;20298;-33
2022/10/22 09:03:25;;;;;;;0.67;0.50;;;;;;;;;;5127793;27;20214;-30
2022/10/22 09:05:56;;;;;;;0.70;0.70;;;;;;;;;;5113549;27;20277;-37
2022/10/22 09:08:23;;;;;;;2.43;0.90;;;;;;;;;;5137712;27;20213;-31
2022/10/22 09:10:53;;;;;;;1.10;0.90;;;;;;;;;;5143165;27;20239;-33
2022/10/22 09:13:21;;;;;;;0.87;0.87;;;;;;;;;;5146563;27;20199;-34
2022/10/22 09:15:51;;;;;;;1.90;0.93;;;;;;;;;;5142716;27;20202;-33
2022/10/22 09:18:24;;;;;;;1.27;1.00;;;;;;;;;;5137675;27;20209;-36
2022/10/22 09:20:55;;;;;;;0.90;0.83;;;;;;;;;;5141509;27;20221;-36
2022/10/22 09:23:29;;;;;;;1.07;0.97;;;;;;;;;;5145409;27;20198;-36
2022/10/22 09:25:58;;;;;;;0.60;0.60;;;;;;;;;;5151615;27;20209;-35
2022/10/22 09:28:26;;;;;;;1.27;0.60;;;;;;;;;;5145838;27;20206;-34
2022/10/22 09:30:53;;;;;;;2.53;0.90;;;;;;;;;;5133879;27;20223;-35
2022/10/22 09:33:22;;;;;;;0.90;0.90;;;;;;;;;;5136816;27;20192;-35
2022/10/22 09:35:52;;;;;;;2.30;1.10;;;;;;;;;;5135841;27;20205;-32
2022/10/22 09:38:20;;;;;;;1.90;0.70;;;;;;;;;;5151566;27;20202;-33
2022/10/22 09:40:49;;;;;;;0.90;0.87;;;;;;;;;;5149448;27;20221;-35
2022/10/22 09:43:18;;;;;;;3.57;1.40;;;;;;;;;;5134875;27;20206;-36
2022/10/22 09:45:46;;;;;;;1.70;0.90;;;;;;;;;;5144074;27;20217;-36
2022/10/22 09:48:19;;;;;;;2.37;1.00;;;;;;;;;;5140392;27;20191;-33
2022/10/22 09:50:48;;;;;;;1.23;0.90;;;;;;;;;;5142504;27;20222;-34
2022/10/22 09:53:18;;;;;;;1.10;1.00;;;;;;;;;;5146347;27;20211;-35
2022/10/22 09:55:49;;;;;;;2.23;1.23;;;;;;;;;;5144497;27;20202;-34
2022/10/22 09:58:18;;;;;;;0.87;0.70;;;;;;;;;;5145427;27;20202;-31
2022/10/22 10:00:46;;;;;;;1.63;0.93;;;;;;;;;;5143414;27;20225;-36
2022/10/22 10:03:17;;;;;;;0.77;0.70;;;;;;;;;;5140946;27;20214;-34
2022/10/22 10:05:47;;;;;;;1.10;1.00;;;;;;;;;;5143030;27;20207;-36
2022/10/22 10:08:15;;;;;;;3.30;0.90;;;;;;;;;;5151015;27;20251;-35
2022/10/22 10:10:44;;;;;;;1.67;1.10;;;;;;;;;;5133930;27;20245;-29
2022/10/22 10:13:25;;;;;;;1.40;0.90;;;;;;;;;;5139140;27;20261;-30
2022/10/22 10:15:55;;;;;;;1.83;0.97;;;;;;;;;;5139720;27;20289;-31
2022/10/22 10:18:32;;;;;;;3.23;0.80;;;;;;;;;;5149623;27;20199;-34
2022/10/22 10:21:04;;;;;;;1.27;0.90;;;;;;;;;;5143318;27;20284;-32
2022/10/22 10:23:34;;;;;;;0.70;0.70;;;;;;;;;;5144864;27;20227;-31
2022/10/22 10:26:07;;;;;;;0.70;0.70;;;;;;;;;;5133748;27;20231;-33
2022/10/22 10:28:40;;;;;;;1.37;0.80;;;;;;;;;;5139485;27;20200;-36
2022/10/22 10:31:11;;;;;;;1.00;0.90;;;;;;;;;;5146758;27;20226;-35
2022/10/22 10:33:43;;;;;;;4.30;1.00;;;;;;;;;;5142936;27;20211;-34
2022/10/22 10:36:15;;;;;;;0.93;0.93;;;;;;;;;;5139912;27;20198;-30
2022/10/22 10:38:46;;;;;;;0.97;0.80;;;;;;;;;;5138093;27;20199;-30
2022/10/22 10:41:18;;;;;;;1.60;0.90;;;;;;;;;;5130926;27;20231;-32
2022/10/22 10:43:59;;;;;;;1.00;0.63;;;;;;;;;;5135099;27;20290;-35
2022/10/22 10:46:32;;;;;;;1.53;1.00;;;;;;;;;;5143365;27;20285;-30
2022/10/22 10:49:00;;;;;;;1.10;0.70;;;;;;;;;;5143507;27;20210;-33
2022/10/22 10:51:38;;;;;;;3.43;0.80;;;;;;;;;;5142156;27;20258;-32
2022/10/22 10:54:10;;;;;;;2.13;1.00;;;;;;;;;;5148644;27;20256;-32
2022/10/22 10:56:40;;;;;;;5.07;1.47;;;;;;;;;;5135796;27;20199;-30
2022/10/22 10:59:15;;;;;;;1.43;0.97;;;;;;;;;;5146733;27;20236;-33
2022/10/22 11:01:46;;;;;;;0.70;0.70;;;;;;;;;;5136902;27;20221;-29
2022/10/22 11:04:30;;;;;;;1.77;1.20;;;;;;;;;;5138905;27;20215;-34
2022/10/22 11:07:01;;;;;;;1.60;0.70;;;;;;;;;;5142518;27;20212;-32
2022/10/22 11:09:31;;;;;;;1.13;0.77;;;;;;;;;;5147723;27;20191;-33
2022/10/22 11:12:00;;;;;;;2.13;0.70;;;;;;;;;;5147565;27;20223;-34
2022/10/22 11:14:31;;;;;;;2.37;1.00;;;;;;;;;;5135635;27;20203;-34
2022/10/22 11:17:00;;;;;;;1.13;0.67;;;;;;;;;;5140977;27;20194;-35
2022/10/22 11:19:31;;;;;;;1.50;0.70;;;;;;;;;;5137968;27;20294;-37
2022/10/22 11:22:03;;;;;;;1.17;1.00;;;;;;;;;;5136851;27;20195;-36
2022/10/22 11:24:34;;;;;;;1.60;0.83;;;;;;;;;;5135151;27;20238;-34
2022/10/22 11:27:06;;;;;;;1.20;0.80;;;;;;;;;;5220294;22;20258;-30
2022/10/22 11:29:42;;;;;;;1.77;0.70;;;;;;;;;;5093401;28;20209;-35
2022/10/22 11:32:13;;;;;;;2.90;0.87;;;;;;;;;;5405726;22;20205;-31
2022/10/22 11:34:47;;;;;;;0.50;0.50;;;;;;;;;;5093632;28;20203;-33
2022/10/22 11:37:19;;;;;;;1.73;0.80;;;;;;;;;;5109871;28;20211;-30
2022/10/22 11:39:50;;;;;;;1.00;1.00;;;;;;;;;;5115060;28;20248;-32
2022/10/22 11:42:32;;;;;;;1.90;0.67;;;;;;;;;;5108907;28;20223;-31
2022/10/22 11:45:08;;;;;;;1.37;0.53;;;;;;;;;;5093524;28;20290;-30
2022/10/22 11:47:44;;;;;;;1.90;0.60;;;;;;;;;;5076671;28;20206;-35
2022/10/22 11:50:25;;;;;;;0.70;0.70;;;;;;;;;;5093158;28;20230;-31
2022/10/22 11:53:02;;;;;;;1.17;0.70;;;;;;;;;;5096483;28;20200;-32
2022/10/22 12:00:40;;;;;;;5.13;0.60;;;;;;;;;;5076598;28;20319;-32
2022/10/22 12:03:16;;;;;;;0.83;0.50;;;;;;;;;;5075678;28;20284;-34
2022/10/22 12:05:44;;;;;;;1.43;0.70;;;;;;;;;;5054770;28;20291;-33
2022/10/22 12:08:32;;;;;;;1.30;0.60;;;;;;;;;;5083705;28;20207;-32
2022/10/22 12:11:07;;;;;;;1.07;0.60;;;;;;;;;;5067862;28;20225;-35
2022/10/22 12:13:57;;;;;;;3.30;1.13;;;;;;;;;;5061481;28;20242;-30
2022/10/22 12:16:26;;;;;;;2.23;0.67;;;;;;;;;;5065594;28;20293;-32
2022/10/22 12:18:57;;;;;;;2.93;0.70;;;;;;;;;;5066543;28;20236;-29
2022/10/22 12:21:25;;;;;;;2.10;1.00;;;;;;;;;;5068201;28;20312;-32
2022/10/22 12:23:52;;;;;;;0.77;0.77;;;;;;;;;;5078497;28;20201;-31
2022/10/22 12:26:26;;;;;;;1.80;0.90;;;;;;;;;;5072046;28;20205;-33
2022/10/22 12:28:57;;;;;;;2.40;0.73;;;;;;;;;;5067398;28;20201;-30
2022/10/22 12:31:28;;;;;;;2.73;0.90;;;;;;;;;;5084404;28;20243;-31
2022/10/22 12:33:58;;;;;;;2.93;1.10;;;;;;;;;;5072624;28;20213;-28
2022/10/22 12:36:26;;;;;;;1.57;0.50;;;;;;;;;;5077006;28;20222;-34
2022/10/22 12:38:54;;;;;;;1.57;0.57;;;;;;;;;;5087559;28;20216;-33
2022/10/22 12:41:21;;;;;;;0.70;0.50;;;;;;;;;;5092386;28;20251;-30
2022/10/22 12:43:49;;;;;;;1.03;0.80;;;;;;;;;;5065970;28;20210;-31
2022/10/22 12:46:16;;;;;;;1.90;0.50;;;;;;;;;;5071625;28;20216;-32
2022/10/22 12:48:46;;;;;;;1.03;0.80;;;;;;;;;;5069463;28;20214;-33
2022/10/22 12:51:17;;;;;;;8.53;0.90;;;;;;;;;;5081311;28;20232;-33
2022/10/22 12:53:46;;;;;;;1.43;0.90;;;;;;;;;;5070630;28;20221;-33
2022/10/22 12:56:15;;;;;;;2.17;0.80;;;;;;;;;;5071515;28;20205;-33
2022/10/22 12:58:43;;;;;;;1.67;0.63;;;;;;;;;;5058762;28;20252;-32
2022/10/22 13:01:11;;;;;;;1.87;0.70;;;;;;;;;;5077936;28;20308;-29
2022/10/22 13:03:42;;;;;;;0.57;0.43;;;;;;;;;;5073282;28;20213;-34
2022/10/22 13:06:14;;;;;;;1.60;0.50;;;;;;;;;;5068101;28;20207;-30
2022/10/22 13:08:41;;;;;;;4.17;0.87;;;;;;;;;;5078233;28;20285;-29
2022/10/22 13:11:09;;;;;;;5.37;0.90;;;;;;;;;;5066191;28;20240;-31
2022/10/22 13:13:44;;;;;;;0.87;0.60;;;;;;;;;;5080214;28;20204;-29
2022/10/22 13:16:18;;;;;;;2.53;0.83;;;;;;;;;;5079086;28;20200;-33
2022/10/22 13:18:45;;;;;;;2.63;0.80;;;;;;;;;;5061959;28;20210;-30
2022/10/22 13:21:25;;;;;;;0.93;0.70;;;;;;;;;;5076034;28;20220;-29
2022/10/22 13:23:53;;;;;;;1.30;0.60;;;;;;;;;;5079353;28;20204;-30
2022/10/22 13:26:20;;;;;;;3.33;0.90;;;;;;;;;;5071425;28;20201;-33
2022/10/22 13:28:51;;;;;;;6.27;0.90;;;;;;;;;;5069243;28;20201;-33
2022/10/22 13:31:19;;;;;;;0.90;0.63;;;;;;;;;;5070764;28;20235;-34
2022/10/22 13:33:47;;;;;;;1.90;0.60;;;;;;;;;;5066707;28;20209;-32
2022/10/22 13:36:15;;;;;;;6.03;1.83;;;;;;;;;;5081283;28;20212;-33
2022/10/22 13:38:44;;;;;;;2.67;0.90;;;;;;;;;;5083896;28;20207;-33
2022/10/22 13:41:22;;;;;;;2.40;0.90;;;;;;;;;;5084364;28;20221;-29
2022/10/22 13:43:49;;;;;;;2.83;0.50;;;;;;;;;;5064868;28;20655;-34
2022/10/22 13:46:17;;;;;;;3.90;0.50;;;;;;;;;;5078433;28;20207;-30
2022/10/22 13:48:44;;;;;;;1.63;0.60;;;;;;;;;;5067688;28;20292;-33
2022/10/22 13:51:15;;;;;;;2.13;0.60;;;;;;;;;;5072582;28;20225;-29
2022/10/22 13:53:44;;;;;;;0.77;0.63;;;;;;;;;;5076300;28;20288;-30
2022/10/22 13:56:14;;;;;;;1.73;0.60;;;;;;;;;;5065164;28;20213;-32
2022/10/22 13:58:41;;;;;;;1.60;0.53;;;;;;;;;;5065420;28;20220;-30
2022/10/22 14:01:14;;;;;;;2.20;0.60;;;;;;;;;;5079106;28;20224;-34
2022/10/22 14:03:41;;;;;;;2.27;0.60;;;;;;;;;;5077256;28;20216;-28
2022/10/22 14:06:12;;;;;;;4.77;0.63;;;;;;;;;;5063422;28;20213;-33
2022/10/22 14:08:39;;;;;;;8.33;0.60;;;;;;;;;;5077497;28;20207;-32
2022/10/22 14:11:09;;;;;;;1.27;0.60;;;;;;;;;;5068854;28;20241;-33
2022/10/22 14:13:36;;;;;;;1.77;0.60;;;;;;;;;;5064840;28;20197;-30
2022/10/22 14:16:05;;;;;;;2.23;0.83;;;;;;;;;;5083904;28;20208;-31
2022/10/22 14:18:32;;;;;;;4.97;0.90;;;;;;;;;;5071780;28;20289;-33
2022/10/22 14:21:03;;;;;;;1.97;0.80;;;;;;;;;;5074667;28;20230;-32
2022/10/22 14:23:31;;;;;;;0.60;0.60;;;;;;;;;;5077868;28;20209;-30
2022/10/22 14:25:58;;;;;;;3.50;0.70;;;;;;;;;;5078173;28;20204;-32
2022/10/22 14:28:27;;;;;;;2.43;0.90;;;;;;;;;;5083693;28;20196;-32
2022/10/22 14:30:57;;;;;;;1.33;0.50;;;;;;;;;;5092046;28;20292;-31
2022/10/22 14:33:25;;;;;;;0.73;0.57;;;;;;;;;;5066869;28;20204;-32
2022/10/22 14:35:52;;;;;;;1.83;0.87;;;;;;;;;;5075263;28;20207;-33
2022/10/22 14:38:20;;;;;;;2.67;0.67;;;;;;;;;;5078078;28;20207;-30
2022/10/22 14:40:47;;;;;;;2.67;0.90;;;;;;;;;;5061056;28;20235;-29
2022/10/22 14:43:17;;;;;;;2.73;0.50;;;;;;;;;;5063993;28;20220;-29
2022/10/22 14:45:45;;;;;;;0.77;0.60;;;;;;;;;;5079162;28;20211;-33
2022/10/22 14:48:12;;;;;;;3.50;1.00;;;;;;;;;;5065567;28;20215;-34
2022/10/22 14:50:39;;;;;;;4.50;0.73;;;;;;;;;;5072039;28;20225;-33
2022/10/22 14:53:06;;;;;;;0.93;0.50;;;;;;;;;;5072983;28;20231;-30
2022/10/22 14:55:34;;;;;;;1.50;0.60;;;;;;;;;;5069607;28;20205;-33
2022/10/22 14:58:03;;;;;;;3.30;0.80;;;;;;;;;;5068221;28;20213;-31
2022/10/22 15:00:30;;;;;;;1.67;0.50;;;;;;;;;;5072509;28;20290;-29
2022/10/22 15:02:59;;;;;;;3.40;0.80;;;;;;;;;;5068686;28;20297;-33
2022/10/22 15:05:30;;;;;;;1.73;0.80;;;;;;;;;;5069343;28;20225;-33
2022/10/22 15:07:59;;;;;;;3.80;0.80;;;;;;;;;;5071867;28;20197;-32
2022/10/22 15:10:26;;;;;;;1.67;0.63;;;;;;;;;;5069563;28;20290;-32
2022/10/22 15:12:53;;;;;;;5.87;1.03;;;;;;;;;;5068593;28;20235;-34
2022/10/22 15:15:20;;;;;;;1.23;0.70;;;;;;;;;;5073329;28;20205;-31
2022/10/22 15:17:47;;;;;;;1.70;0.90;;;;;;;;;;5066323;28;20208;-30
2022/10/22 15:20:16;;;;;;;0.70;0.60;;;;;;;;;;5054951;28;20269;-32
2022/10/22 15:22:44;;;;;;;1.33;0.90;;;;;;;;;;5077621;28;20234;-35
2022/10/22 15:25:13;;;;;;;1.17;0.67;;;;;;;;;;5069009;28;20215;-30
2022/10/22 15:27:40;;;;;;;0.50;0.50;;;;;;;;;;5067279;28;20234;-30
2022/10/22 15:30:08;;;;;;;3.23;0.70;;;;;;;;;;5074827;28;20225;-33
2022/10/22 15:32:35;;;;;;;0.93;0.70;;;;;;;;;;5060383;28;20279;-31
2022/10/22 15:35:04;;;;;;;0.80;0.80;;;;;;;;;;5062455;28;20219;-28
2022/10/22 15:37:33;;;;;;;1.70;0.70;;;;;;;;;;5076778;28;20196;-32
2022/10/22 15:40:02;;;;;;;2.53;0.60;;;;;;;;;;5093382;28;20224;-30
2022/10/22 15:42:29;;;;;;;1.20;0.73;;;;;;;;;;5064631;28;20288;-32
2022/10/22 15:44:57;;;;;;;5.40;0.80;;;;;;;;;;5080642;28;20243;-30
2022/10/22 15:47:27;;;;;;;1.40;0.67;;;;;;;;;;5064371;28;20202;-32